< < Back
Terminal Aerodrome Forecast


Current Version              Previous Versions:   1  2  3  4  5  6  7  8  9  

Terminal Aerodrome Forecast

863
FTUS44 KBMX 211700
TAFANB
TAF
KANB 211722Z 2118/2218 VRB05KT P6SM VCSH BKN040
     FM220500 VRB03KT P6SM BKN025
     FM220800 00000KT 2SM BR BKN007 OVC015
     FM221400 10005KT 6SM BR SCT007 BKN015=

Latest METAR

517
SAUS70 KWBC 220900 RRG
MTRANB
METAR KANB 220853Z AUTO 08004KT 10SM BKN022 OVC030 23/22 A3007 RMK AO2
SLP172 T02330217 55002


USA.gov is the U.S. government's official web portal to all federal, state and local government web resources and services.